sensor_id;sensor_type;location;lat;lon;timestamp;P1;durP1;ratioP1;P2;durP2;ratioP2
76856;SDS011;66179;44.686;37.628;2023-04-01T00:00:57;5.28;;;1.70;;
76856;SDS011;66179;44.686;37.628;2023-04-01T00:03:25;6.60;;;1.70;;
76856;SDS011;66179;44.686;37.628;2023-04-01T00:05:53;7.53;;;1.92;;
76856;SDS011;66179;44.686;37.628;2023-04-01T00:08:21;6.47;;;1.80;;
76856;SDS011;66179;44.686;37.628;2023-04-01T00:11:08;5.07;;;1.67;;
76856;SDS011;66179;44.686;37.628;2023-04-01T00:13:34;5.53;;;1.73;;
76856;SDS011;66179;44.686;37.628;2023-04-01T00:16:01;5.20;;;2.00;;
76856;SDS011;66179;44.686;37.628;2023-04-01T00:18:29;6.20;;;1.90;;
76856;SDS011;66179;44.686;37.628;2023-04-01T00:20:56;6.15;;;1.85;;
76856;SDS011;66179;44.686;37.628;2023-04-01T00:23:23;5.93;;;1.87;;
76856;SDS011;66179;44.686;37.628;2023-04-01T00:25:49;5.10;;;1.77;;
76856;SDS011;66179;44.686;37.628;2023-04-01T00:28:36;5.35;;;1.80;;
76856;SDS011;66179;44.686;37.628;2023-04-01T00:31:04;5.65;;;1.50;;
76856;SDS011;66179;44.686;37.628;2023-04-01T00:33:32;6.18;;;1.70;;
76856;SDS011;66179;44.686;37.628;2023-04-01T00:38:38;5.00;;;1.50;;
76856;SDS011;66179;44.686;37.628;2023-04-01T00:41:05;5.15;;;1.50;;
76856;SDS011;66179;44.686;37.628;2023-04-01T00:43:32;8.95;;;1.60;;
76856;SDS011;66179;44.686;37.628;2023-04-01T00:45:59;6.03;;;1.80;;
76856;SDS011;66179;44.686;37.628;2023-04-01T00:48:27;5.27;;;1.60;;
76856;SDS011;66179;44.686;37.628;2023-04-01T00:51:07;5.85;;;1.52;;
76856;SDS011;66179;44.686;37.628;2023-04-01T00:53:39;4.97;;;1.60;;
76856;SDS011;66179;44.686;37.628;2023-04-01T00:58:40;6.25;;;1.50;;
76856;SDS011;66179;44.686;37.628;2023-04-01T01:01:12;4.93;;;1.40;;
76856;SDS011;66179;44.686;37.628;2023-04-01T01:03:38;7.03;;;1.80;;
76856;SDS011;66179;44.686;37.628;2023-04-01T01:09:10;5.13;;;1.50;;
76856;SDS011;66179;44.686;37.628;2023-04-01T01:14:36;6.10;;;1.60;;
76856;SDS011;66179;44.686;37.628;2023-04-01T01:17:29;4.70;;;1.40;;
76856;SDS011;66179;44.686;37.628;2023-04-01T01:26:02;6.68;;;1.40;;
76856;SDS011;66179;44.686;37.628;2023-04-01T01:31:37;6.28;;;1.83;;
76856;SDS011;66179;44.686;37.628;2023-04-01T01:34:22;5.00;;;1.40;;
76856;SDS011;66179;44.686;37.628;2023-04-01T01:37:08;5.50;;;1.48;;
76856;SDS011;66179;44.686;37.628;2023-04-01T01:39:38;6.13;;;1.40;;
76856;SDS011;66179;44.686;37.628;2023-04-01T01:42:08;5.23;;;1.50;;
76856;SDS011;66179;44.686;37.628;2023-04-01T01:44:37;8.52;;;1.67;;
76856;SDS011;66179;44.686;37.628;2023-04-01T01:47:06;5.65;;;1.75;;
76856;SDS011;66179;44.686;37.628;2023-04-01T01:49:34;5.57;;;1.38;;
76856;SDS011;66179;44.686;37.628;2023-04-01T01:52:02;4.50;;;1.50;;
76856;SDS011;66179;44.686;37.628;2023-04-01T01:54:29;5.37;;;1.60;;
76856;SDS011;66179;44.686;37.628;2023-04-01T01:57:06;4.18;;;1.58;;
76856;SDS011;66179;44.686;37.628;2023-04-01T01:59:38;6.40;;;1.75;;
76856;SDS011;66179;44.686;37.628;2023-04-01T02:02:07;5.88;;;1.58;;
76856;SDS011;66179;44.686;37.628;2023-04-01T02:04:37;5.80;;;1.60;;
76856;SDS011;66179;44.686;37.628;2023-04-01T02:07:14;5.93;;;1.87;;
76856;SDS011;66179;44.686;37.628;2023-04-01T02:09:46;5.93;;;1.60;;
76856;SDS011;66179;44.686;37.628;2023-04-01T02:12:14;7.65;;;1.60;;
76856;SDS011;66179;44.686;37.628;2023-04-01T02:14:44;6.50;;;1.60;;
76856;SDS011;66179;44.686;37.628;2023-04-01T02:17:16;5.93;;;1.70;;
76856;SDS011;66179;44.686;37.628;2023-04-01T02:19:49;9.10;;;1.97;;
76856;SDS011;66179;44.686;37.628;2023-04-01T02:22:28;6.25;;;1.75;;
76856;SDS011;66179;44.686;37.628;2023-04-01T02:25:03;6.18;;;1.60;;
76856;SDS011;66179;44.686;37.628;2023-04-01T02:27:32;4.78;;;1.58;;
76856;SDS011;66179;44.686;37.628;2023-04-01T02:29:59;6.90;;;1.77;;
76856;SDS011;66179;44.686;37.628;2023-04-01T02:32:26;6.40;;;1.70;;
76856;SDS011;66179;44.686;37.628;2023-04-01T02:34:55;7.25;;;1.65;;
76856;SDS011;66179;44.686;37.628;2023-04-01T02:37:22;7.15;;;1.90;;
76856;SDS011;66179;44.686;37.628;2023-04-01T02:39:49;5.97;;;1.60;;
76856;SDS011;66179;44.686;37.628;2023-04-01T02:42:15;5.68;;;1.85;;
76856;SDS011;66179;44.686;37.628;2023-04-01T02:44:42;5.87;;;1.70;;
76856;SDS011;66179;44.686;37.628;2023-04-01T02:47:09;5.55;;;1.80;;
76856;SDS011;66179;44.686;37.628;2023-04-01T02:49:36;5.30;;;1.40;;
76856;SDS011;66179;44.686;37.628;2023-04-01T02:52:03;5.85;;;1.63;;
76856;SDS011;66179;44.686;37.628;2023-04-01T02:54:30;5.30;;;1.50;;
76856;SDS011;66179;44.686;37.628;2023-04-01T02:56:57;6.60;;;1.50;;
76856;SDS011;66179;44.686;37.628;2023-04-01T02:59:29;6.55;;;1.48;;
76856;SDS011;66179;44.686;37.628;2023-04-01T03:01:56;6.68;;;1.70;;
76856;SDS011;66179;44.686;37.628;2023-04-01T03:04:22;5.60;;;1.65;;
76856;SDS011;66179;44.686;37.628;2023-04-01T03:06:49;7.78;;;1.80;;
76856;SDS011;66179;44.686;37.628;2023-04-01T03:09:17;5.53;;;1.50;;
76856;SDS011;66179;44.686;37.628;2023-04-01T03:11:44;5.82;;;1.50;;
76856;SDS011;66179;44.686;37.628;2023-04-01T03:14:11;5.57;;;1.40;;
76856;SDS011;66179;44.686;37.628;2023-04-01T03:16:37;6.90;;;1.60;;
76856;SDS011;66179;44.686;37.628;2023-04-01T03:19:04;6.03;;;1.52;;
76856;SDS011;66179;44.686;37.628;2023-04-01T03:21:31;5.63;;;1.60;;
76856;SDS011;66179;44.686;37.628;2023-04-01T03:23:58;5.60;;;1.60;;
76856;SDS011;66179;44.686;37.628;2023-04-01T03:26:25;5.25;;;1.48;;
76856;SDS011;66179;44.686;37.628;2023-04-01T03:28:53;4.93;;;1.40;;
76856;SDS011;66179;44.686;37.628;2023-04-01T03:31:21;8.90;;;1.70;;
76856;SDS011;66179;44.686;37.628;2023-04-01T03:33:52;7.67;;;1.57;;
76856;SDS011;66179;44.686;37.628;2023-04-01T03:36:19;6.15;;;1.55;;
76856;SDS011;66179;44.686;37.628;2023-04-01T03:38:46;8.02;;;1.48;;
76856;SDS011;66179;44.686;37.628;2023-04-01T03:41:18;7.20;;;1.50;;
76856;SDS011;66179;44.686;37.628;2023-04-01T03:43:46;5.63;;;1.50;;
76856;SDS011;66179;44.686;37.628;2023-04-01T03:46:17;6.00;;;1.50;;
76856;SDS011;66179;44.686;37.628;2023-04-01T03:48:45;4.88;;;1.33;;
76856;SDS011;66179;44.686;37.628;2023-04-01T03:51:12;6.65;;;1.70;;
76856;SDS011;66179;44.686;37.628;2023-04-01T03:53:38;7.22;;;1.60;;
76856;SDS011;66179;44.686;37.628;2023-04-01T03:56:06;6.38;;;1.50;;
76856;SDS011;66179;44.686;37.628;2023-04-01T03:58:35;6.83;;;1.40;;
76856;SDS011;66179;44.686;37.628;2023-04-01T04:01:03;5.82;;;1.48;;
76856;SDS011;66179;44.686;37.628;2023-04-01T04:03:39;7.28;;;1.60;;
76856;SDS011;66179;44.686;37.628;2023-04-01T04:06:10;5.13;;;1.30;;
76856;SDS011;66179;44.686;37.628;2023-04-01T04:08:42;6.20;;;1.48;;
76856;SDS011;66179;44.686;37.628;2023-04-01T04:11:10;4.90;;;1.50;;
76856;SDS011;66179;44.686;37.628;2023-04-01T04:13:40;6.68;;;1.58;;
76856;SDS011;66179;44.686;37.628;2023-04-01T04:16:08;5.63;;;1.50;;
76856;SDS011;66179;44.686;37.628;2023-04-01T04:18:38;10.20;;;2.78;;
76856;SDS011;66179;44.686;37.628;2023-04-01T04:21:05;7.55;;;2.10;;
76856;SDS011;66179;44.686;37.628;2023-04-01T04:23:32;6.63;;;1.60;;
76856;SDS011;66179;44.686;37.628;2023-04-01T04:26:01;5.18;;;1.60;;
76856;SDS011;66179;44.686;37.628;2023-04-01T04:28:32;5.97;;;1.58;;
76856;SDS011;66179;44.686;37.628;2023-04-01T04:30:59;6.43;;;1.67;;
76856;SDS011;66179;44.686;37.628;2023-04-01T04:33:26;5.65;;;1.65;;
76856;SDS011;66179;44.686;37.628;2023-04-01T04:35:56;7.47;;;1.57;;
76856;SDS011;66179;44.686;37.628;2023-04-01T04:38:24;6.63;;;1.52;;
76856;SDS011;66179;44.686;37.628;2023-04-01T04:40:51;5.45;;;1.40;;
76856;SDS011;66179;44.686;37.628;2023-04-01T04:43:18;5.38;;;1.30;;
76856;SDS011;66179;44.686;37.628;2023-04-01T04:45:45;4.85;;;1.52;;
76856;SDS011;66179;44.686;37.628;2023-04-01T04:48:12;4.80;;;1.53;;
76856;SDS011;66179;44.686;37.628;2023-04-01T04:50:48;5.22;;;1.60;;
76856;SDS011;66179;44.686;37.628;2023-04-01T04:53:18;5.82;;;1.55;;
76856;SDS011;66179;44.686;37.628;2023-04-01T04:55:48;6.85;;;1.60;;
76856;SDS011;66179;44.686;37.628;2023-04-01T04:58:42;5.40;;;1.50;;
76856;SDS011;66179;44.686;37.628;2023-04-01T05:01:14;6.60;;;1.60;;
76856;SDS011;66179;44.686;37.628;2023-04-01T05:03:43;6.75;;;1.80;;
76856;SDS011;66179;44.686;37.628;2023-04-01T05:06:11;5.93;;;1.50;;
76856;SDS011;66179;44.686;37.628;2023-04-01T05:08:41;5.95;;;1.52;;
76856;SDS011;66179;44.686;37.628;2023-04-01T05:11:10;6.72;;;1.63;;
76856;SDS011;66179;44.686;37.628;2023-04-01T05:13:43;6.13;;;1.50;;
76856;SDS011;66179;44.686;37.628;2023-04-01T05:16:12;6.15;;;1.60;;
76856;SDS011;66179;44.686;37.628;2023-04-01T05:18:43;5.78;;;1.65;;
76856;SDS011;66179;44.686;37.628;2023-04-01T05:21:10;7.50;;;2.00;;
76856;SDS011;66179;44.686;37.628;2023-04-01T05:23:39;5.28;;;1.90;;
76856;SDS011;66179;44.686;37.628;2023-04-01T05:26:07;6.83;;;1.60;;
76856;SDS011;66179;44.686;37.628;2023-04-01T05:28:37;7.43;;;1.95;;
76856;SDS011;66179;44.686;37.628;2023-04-01T05:31:05;8.13;;;2.90;;
76856;SDS011;66179;44.686;37.628;2023-04-01T05:33:38;10.15;;;3.22;;
76856;SDS011;66179;44.686;37.628;2023-04-01T05:36:14;8.43;;;2.85;;
76856;SDS011;66179;44.686;37.628;2023-04-01T05:38:47;7.13;;;2.40;;
76856;SDS011;66179;44.686;37.628;2023-04-01T05:41:17;5.90;;;1.67;;
76856;SDS011;66179;44.686;37.628;2023-04-01T05:43:45;5.00;;;1.60;;
76856;SDS011;66179;44.686;37.628;2023-04-01T05:49:37;6.85;;;2.40;;
76856;SDS011;66179;44.686;37.628;2023-04-01T05:52:05;6.80;;;1.80;;
76856;SDS011;66179;44.686;37.628;2023-04-01T05:54:34;7.18;;;1.80;;
76856;SDS011;66179;44.686;37.628;2023-04-01T05:57:01;6.75;;;1.55;;
76856;SDS011;66179;44.686;37.628;2023-04-01T05:59:33;9.55;;;1.90;;
76856;SDS011;66179;44.686;37.628;2023-04-01T06:02:01;8.25;;;2.90;;
76856;SDS011;66179;44.686;37.628;2023-04-01T06:04:28;7.27;;;2.57;;
76856;SDS011;66179;44.686;37.628;2023-04-01T06:07:05;9.30;;;2.70;;
76856;SDS011;66179;44.686;37.628;2023-04-01T06:09:37;8.18;;;2.33;;
76856;SDS011;66179;44.686;37.628;2023-04-01T06:20:03;5.90;;;1.50;;
76856;SDS011;66179;44.686;37.628;2023-04-01T06:49:52;6.60;;;1.50;;
76856;SDS011;66179;44.686;37.628;2023-04-01T06:53:21;6.10;;;1.50;;
76856;SDS011;66179;44.686;37.628;2023-04-01T06:56:12;4.60;;;1.27;;
76856;SDS011;66179;44.686;37.628;2023-04-01T06:58:58;8.05;;;1.50;;
76856;SDS011;66179;44.686;37.628;2023-04-01T07:01:39;7.07;;;1.40;;
76856;SDS011;66179;44.686;37.628;2023-04-01T07:04:13;8.23;;;1.90;;
76856;SDS011;66179;44.686;37.628;2023-04-01T07:09:22;7.35;;;1.70;;
76856;SDS011;66179;44.686;37.628;2023-04-01T07:12:19;6.65;;;1.60;;
76856;SDS011;66179;44.686;37.628;2023-04-01T07:15:35;10.80;;;1.53;;
76856;SDS011;66179;44.686;37.628;2023-04-01T07:18:11;6.93;;;1.38;;
76856;SDS011;66179;44.686;37.628;2023-04-01T07:20:45;6.18;;;1.40;;
76856;SDS011;66179;44.686;37.628;2023-04-01T07:23:32;8.60;;;1.65;;
76856;SDS011;66179;44.686;37.628;2023-04-01T07:26:22;7.75;;;1.40;;
76856;SDS011;66179;44.686;37.628;2023-04-01T07:29:12;7.23;;;1.40;;
76856;SDS011;66179;44.686;37.628;2023-04-01T07:34:35;6.30;;;1.30;;
76856;SDS011;66179;44.686;37.628;2023-04-01T07:37:10;6.88;;;1.40;;
76856;SDS011;66179;44.686;37.628;2023-04-01T07:40:01;7.63;;;1.58;;
76856;SDS011;66179;44.686;37.628;2023-04-01T07:46:21;6.82;;;1.70;;
76856;SDS011;66179;44.686;37.628;2023-04-01T07:58:28;13.60;;;2.10;;
76856;SDS011;66179;44.686;37.628;2023-04-01T08:04:23;7.13;;;1.73;;
76856;SDS011;66179;44.686;37.628;2023-04-01T08:07:06;7.05;;;1.58;;
76856;SDS011;66179;44.686;37.628;2023-04-01T08:09:59;6.32;;;1.48;;
76856;SDS011;66179;44.686;37.628;2023-04-01T08:15:47;7.82;;;1.40;;
76856;SDS011;66179;44.686;37.628;2023-04-01T08:18:50;6.15;;;1.42;;
76856;SDS011;66179;44.686;37.628;2023-04-01T08:21:41;7.60;;;1.33;;
76856;SDS011;66179;44.686;37.628;2023-04-01T08:24:17;9.48;;;1.30;;
76856;SDS011;66179;44.686;37.628;2023-04-01T08:26:53;7.37;;;1.50;;
76856;SDS011;66179;44.686;37.628;2023-04-01T08:29:35;7.97;;;1.70;;
76856;SDS011;66179;44.686;37.628;2023-04-01T08:32:10;7.47;;;1.42;;
76856;SDS011;66179;44.686;37.628;2023-04-01T08:34:42;6.80;;;1.35;;
76856;SDS011;66179;44.686;37.628;2023-04-01T08:37:26;8.35;;;1.48;;
76856;SDS011;66179;44.686;37.628;2023-04-01T08:39:58;6.47;;;1.47;;
76856;SDS011;66179;44.686;37.628;2023-04-01T08:42:59;7.95;;;1.85;;
76856;SDS011;66179;44.686;37.628;2023-04-01T08:48:57;5.93;;;1.30;;
76856;SDS011;66179;44.686;37.628;2023-04-01T08:51:45;6.28;;;1.70;;
76856;SDS011;66179;44.686;37.628;2023-04-01T08:57:11;9.95;;;1.25;;
76856;SDS011;66179;44.686;37.628;2023-04-01T09:06:02;6.45;;;1.20;;
76856;SDS011;66179;44.686;37.628;2023-04-01T09:20:42;7.05;;;1.20;;
76856;SDS011;66179;44.686;37.628;2023-04-01T09:23:42;6.70;;;1.20;;
76856;SDS011;66179;44.686;37.628;2023-04-01T09:29:37;8.85;;;1.65;;
76856;SDS011;66179;44.686;37.628;2023-04-01T09:32:18;7.50;;;1.23;;
76856;SDS011;66179;44.686;37.628;2023-04-01T09:35:20;5.95;;;1.15;;
76856;SDS011;66179;44.686;37.628;2023-04-01T09:50:09;5.38;;;1.20;;
76856;SDS011;66179;44.686;37.628;2023-04-01T09:52:38;5.70;;;1.13;;
76856;SDS011;66179;44.686;37.628;2023-04-01T10:10:39;4.82;;;1.20;;
76856;SDS011;66179;44.686;37.628;2023-04-01T10:22:31;7.07;;;1.20;;
76856;SDS011;66179;44.686;37.628;2023-04-01T10:27:43;9.48;;;1.30;;
76856;SDS011;66179;44.686;37.628;2023-04-01T10:31:13;8.18;;;1.30;;
76856;SDS011;66179;44.686;37.628;2023-04-01T10:51:45;6.60;;;1.20;;
76856;SDS011;66179;44.686;37.628;2023-04-01T10:55:19;5.07;;;1.08;;
76856;SDS011;66179;44.686;37.628;2023-04-01T11:07:48;6.97;;;1.20;;
76856;SDS011;66179;44.686;37.628;2023-04-01T11:21:47;6.05;;;1.30;;
76856;SDS011;66179;44.686;37.628;2023-04-01T11:33:46;6.60;;;1.27;;
76856;SDS011;66179;44.686;37.628;2023-04-01T11:36:25;6.07;;;1.10;;
76856;SDS011;66179;44.686;37.628;2023-04-01T11:45:29;7.75;;;1.20;;
76856;SDS011;66179;44.686;37.628;2023-04-01T11:59:38;7.40;;;1.10;;
76856;SDS011;66179;44.686;37.628;2023-04-01T12:05:31;5.63;;;1.10;;
76856;SDS011;66179;44.686;37.628;2023-04-01T12:10:54;8.50;;;1.20;;
76856;SDS011;66179;44.686;37.628;2023-04-01T12:19:09;5.30;;;1.20;;
76856;SDS011;66179;44.686;37.628;2023-04-01T12:21:42;7.43;;;1.40;;
76856;SDS011;66179;44.686;37.628;2023-04-01T12:27:04;5.63;;;1.20;;
76856;SDS011;66179;44.686;37.628;2023-04-01T12:40:46;4.25;;;1.00;;
76856;SDS011;66179;44.686;37.628;2023-04-01T12:46:13;4.53;;;1.10;;
76856;SDS011;66179;44.686;37.628;2023-04-01T12:49:00;6.72;;;1.30;;
76856;SDS011;66179;44.686;37.628;2023-04-01T12:52:03;6.25;;;1.23;;
76856;SDS011;66179;44.686;37.628;2023-04-01T12:54:42;4.72;;;1.00;;
76856;SDS011;66179;44.686;37.628;2023-04-01T13:00:33;7.07;;;1.20;;
76856;SDS011;66179;44.686;37.628;2023-04-01T13:14:23;9.33;;;2.13;;
76856;SDS011;66179;44.686;37.628;2023-04-01T13:28:23;6.97;;;1.25;;
76856;SDS011;66179;44.686;37.628;2023-04-01T13:41:59;5.77;;;1.20;;
76856;SDS011;66179;44.686;37.628;2023-04-01T14:02:44;4.53;;;1.25;;
76856;SDS011;66179;44.686;37.628;2023-04-01T14:13:41;5.95;;;1.20;;
76856;SDS011;66179;44.686;37.628;2023-04-01T14:16:30;7.47;;;1.90;;
76856;SDS011;66179;44.686;37.628;2023-04-01T14:19:30;9.00;;;2.50;;
76856;SDS011;66179;44.686;37.628;2023-04-01T14:25:21;7.03;;;1.30;;
76856;SDS011;66179;44.686;37.628;2023-04-01T14:36:41;6.75;;;1.60;;
76856;SDS011;66179;44.686;37.628;2023-04-01T14:47:46;7.45;;;1.45;;
76856;SDS011;66179;44.686;37.628;2023-04-01T14:50:41;5.47;;;1.80;;
76856;SDS011;66179;44.686;37.628;2023-04-01T14:55:50;7.05;;;1.60;;
76856;SDS011;66179;44.686;37.628;2023-04-01T14:58:19;7.50;;;1.70;;
76856;SDS011;66179;44.686;37.628;2023-04-01T15:03:36;6.22;;;1.25;;
76856;SDS011;66179;44.686;37.628;2023-04-01T15:06:27;6.40;;;1.47;;
76856;SDS011;66179;44.686;37.628;2023-04-01T15:11:48;6.50;;;1.30;;
76856;SDS011;66179;44.686;37.628;2023-04-01T15:14:38;8.38;;;1.70;;
76856;SDS011;66179;44.686;37.628;2023-04-01T15:20:22;7.40;;;1.63;;
76856;SDS011;66179;44.686;37.628;2023-04-01T15:28:27;7.95;;;1.70;;
76856;SDS011;66179;44.686;37.628;2023-04-01T15:31:25;5.97;;;1.13;;
76856;SDS011;66179;44.686;37.628;2023-04-01T15:55:54;6.57;;;1.48;;
76856;SDS011;66179;44.686;37.628;2023-04-01T15:58:44;7.20;;;1.40;;
76856;SDS011;66179;44.686;37.628;2023-04-01T16:01:32;6.20;;;1.60;;
76856;SDS011;66179;44.686;37.628;2023-04-01T16:04:20;7.45;;;1.50;;
76856;SDS011;66179;44.686;37.628;2023-04-01T16:09:58;7.65;;;1.40;;
76856;SDS011;66179;44.686;37.628;2023-04-01T16:16:00;9.03;;;1.63;;
76856;SDS011;66179;44.686;37.628;2023-04-01T16:24:34;8.02;;;1.40;;
76856;SDS011;66179;44.686;37.628;2023-04-01T16:36:13;6.57;;;1.60;;
76856;SDS011;66179;44.686;37.628;2023-04-01T16:39:18;6.57;;;1.48;;
76856;SDS011;66179;44.686;37.628;2023-04-01T16:44:49;6.03;;;1.40;;
76856;SDS011;66179;44.686;37.628;2023-04-01T16:47:22;7.03;;;1.30;;
76856;SDS011;66179;44.686;37.628;2023-04-01T16:49:56;4.47;;;1.08;;
76856;SDS011;66179;44.686;37.628;2023-04-01T16:55:20;6.20;;;1.30;;
76856;SDS011;66179;44.686;37.628;2023-04-01T16:57:56;5.73;;;1.37;;
76856;SDS011;66179;44.686;37.628;2023-04-01T17:00:30;6.85;;;1.40;;
76856;SDS011;66179;44.686;37.628;2023-04-01T17:03:11;7.07;;;1.40;;
76856;SDS011;66179;44.686;37.628;2023-04-01T17:05:52;6.30;;;1.08;;
76856;SDS011;66179;44.686;37.628;2023-04-01T17:08:33;7.78;;;1.17;;
76856;SDS011;66179;44.686;37.628;2023-04-01T17:11:25;6.87;;;1.30;;
76856;SDS011;66179;44.686;37.628;2023-04-01T17:14:01;8.52;;;1.52;;
76856;SDS011;66179;44.686;37.628;2023-04-01T17:16:36;6.53;;;1.20;;
76856;SDS011;66179;44.686;37.628;2023-04-01T17:19:23;5.97;;;1.10;;
76856;SDS011;66179;44.686;37.628;2023-04-01T17:27:35;4.75;;;1.13;;
76856;SDS011;66179;44.686;37.628;2023-04-01T17:33:06;5.38;;;1.10;;
76856;SDS011;66179;44.686;37.628;2023-04-01T17:44:26;6.43;;;1.27;;
76856;SDS011;66179;44.686;37.628;2023-04-01T17:55:39;6.32;;;1.50;;
76856;SDS011;66179;44.686;37.628;2023-04-01T17:58:21;5.70;;;1.23;;
76856;SDS011;66179;44.686;37.628;2023-04-01T18:15:37;6.03;;;1.20;;
76856;SDS011;66179;44.686;37.628;2023-04-01T18:26:34;8.50;;;1.30;;
76856;SDS011;66179;44.686;37.628;2023-04-01T18:32:13;8.93;;;1.20;;
76856;SDS011;66179;44.686;37.628;2023-04-01T18:38:12;6.10;;;1.45;;
76856;SDS011;66179;44.686;37.628;2023-04-01T18:40:48;5.18;;;1.13;;
76856;SDS011;66179;44.686;37.628;2023-04-01T18:43:30;5.53;;;1.02;;
76856;SDS011;66179;44.686;37.628;2023-04-01T18:51:53;5.90;;;1.30;;
76856;SDS011;66179;44.686;37.628;2023-04-01T18:54:26;6.18;;;1.17;;
76856;SDS011;66179;44.686;37.628;2023-04-01T18:57:10;6.28;;;1.23;;
76856;SDS011;66179;44.686;37.628;2023-04-01T19:02:32;8.97;;;1.30;;
76856;SDS011;66179;44.686;37.628;2023-04-01T19:07:43;5.93;;;1.10;;
76856;SDS011;66179;44.686;37.628;2023-04-01T19:15:30;7.03;;;1.37;;
76856;SDS011;66179;44.686;37.628;2023-04-01T19:18:19;7.15;;;1.35;;
76856;SDS011;66179;44.686;37.628;2023-04-01T19:20:59;7.13;;;1.30;;
76856;SDS011;66179;44.686;37.628;2023-04-01T19:37:55;6.78;;;1.40;;
76856;SDS011;66179;44.686;37.628;2023-04-01T19:40:35;7.45;;;1.58;;
76856;SDS011;66179;44.686;37.628;2023-04-01T19:43:08;4.57;;;1.30;;
76856;SDS011;66179;44.686;37.628;2023-04-01T19:46:05;6.47;;;1.40;;
76856;SDS011;66179;44.686;37.628;2023-04-01T20:11:18;6.63;;;1.30;;
76856;SDS011;66179;44.686;37.628;2023-04-01T20:17:21;4.68;;;1.25;;
76856;SDS011;66179;44.686;37.628;2023-04-01T20:33:31;5.43;;;1.23;;
76856;SDS011;66179;44.686;37.628;2023-04-01T20:39:19;5.23;;;1.10;;
76856;SDS011;66179;44.686;37.628;2023-04-01T20:47:14;5.70;;;1.30;;
76856;SDS011;66179;44.686;37.628;2023-04-01T20:52:17;4.30;;;1.33;;
76856;SDS011;66179;44.686;37.628;2023-04-01T21:11:17;5.13;;;1.30;;
76856;SDS011;66179;44.686;37.628;2023-04-01T21:14:24;5.43;;;1.50;;
76856;SDS011;66179;44.686;37.628;2023-04-01T21:22:50;4.75;;;1.20;;
76856;SDS011;66179;44.686;37.628;2023-04-01T21:29:15;9.90;;;1.33;;
76856;SDS011;66179;44.686;37.628;2023-04-01T21:54:03;5.30;;;1.10;;
76856;SDS011;66179;44.686;37.628;2023-04-01T21:59:42;6.65;;;1.10;;
76856;SDS011;66179;44.686;37.628;2023-04-01T22:02:42;4.60;;;1.20;;
76856;SDS011;66179;44.686;37.628;2023-04-01T22:08:38;5.43;;;1.30;;
76856;SDS011;66179;44.686;37.628;2023-04-01T22:13:56;5.88;;;1.20;;
76856;SDS011;66179;44.686;37.628;2023-04-01T22:19:22;4.88;;;1.30;;
76856;SDS011;66179;44.686;37.628;2023-04-01T22:22:04;4.65;;;1.20;;
76856;SDS011;66179;44.686;37.628;2023-04-01T22:35:27;3.70;;;1.10;;
76856;SDS011;66179;44.686;37.628;2023-04-01T22:38:09;6.10;;;1.08;;
76856;SDS011;66179;44.686;37.628;2023-04-01T22:43:46;5.13;;;1.30;;
76856;SDS011;66179;44.686;37.628;2023-04-01T22:52:21;4.45;;;1.13;;
76856;SDS011;66179;44.686;37.628;2023-04-01T22:55:00;6.03;;;1.20;;
76856;SDS011;66179;44.686;37.628;2023-04-01T23:02:43;5.60;;;1.50;;
76856;SDS011;66179;44.686;37.628;2023-04-01T23:05:15;5.25;;;1.50;;
76856;SDS011;66179;44.686;37.628;2023-04-01T23:10:42;7.27;;;2.00;;
76856;SDS011;66179;44.686;37.628;2023-04-01T23:13:18;6.50;;;1.90;;
76856;SDS011;66179;44.686;37.628;2023-04-01T23:15:51;6.75;;;1.98;;
76856;SDS011;66179;44.686;37.628;2023-04-01T23:18:36;7.13;;;2.10;;
76856;SDS011;66179;44.686;37.628;2023-04-01T23:26:52;7.80;;;2.10;;
76856;SDS011;66179;44.686;37.628;2023-04-01T23:29:26;7.20;;;2.00;;
76856;SDS011;66179;44.686;37.628;2023-04-01T23:32:00;6.40;;;2.10;;
76856;SDS011;66179;44.686;37.628;2023-04-01T23:34:32;5.68;;;1.90;;
76856;SDS011;66179;44.686;37.628;2023-04-01T23:37:12;5.67;;;2.00;;
76856;SDS011;66179;44.686;37.628;2023-04-01T23:39:44;7.10;;;2.10;;
76856;SDS011;66179;44.686;37.628;2023-04-01T23:42:31;6.75;;;2.00;;
76856;SDS011;66179;44.686;37.628;2023-04-01T23:45:05;5.57;;;2.00;;
76856;SDS011;66179;44.686;37.628;2023-04-01T23:47:44;5.50;;;1.75;;
76856;SDS011;66179;44.686;37.628;2023-04-01T23:50:18;6.33;;;2.00;;
76856;SDS011;66179;44.686;37.628;2023-04-01T23:52:52;5.00;;;1.85;;
76856;SDS011;66179;44.686;37.628;2023-04-01T23:55:34;5.63;;;1.90;;
